sensor_id;sensor_type;location;lat;lon;timestamp;P1;durP1;ratioP1;P2;durP2;ratioP2
37955;SDS011;23776;51.592;7.180;2023-02-15T00:01:55;63.88;;;27.15;;
37955;SDS011;23776;51.592;7.180;2023-02-15T00:04:22;63.25;;;25.90;;
37955;SDS011;23776;51.592;7.180;2023-02-15T00:06:49;59.00;;;24.83;;
37955;SDS011;23776;51.592;7.180;2023-02-15T00:09:14;58.17;;;26.15;;
37955;SDS011;23776;51.592;7.180;2023-02-15T00:11:40;60.20;;;25.92;;
37955;SDS011;23776;51.592;7.180;2023-02-15T00:16:48;53.75;;;23.50;;
37955;SDS011;23776;51.592;7.180;2023-02-15T00:19:15;59.75;;;22.38;;
37955;SDS011;23776;51.592;7.180;2023-02-15T00:21:42;60.72;;;23.67;;
37955;SDS011;23776;51.592;7.180;2023-02-15T00:24:09;59.88;;;24.42;;
37955;SDS011;23776;51.592;7.180;2023-02-15T00:26:38;55.15;;;23.50;;
37955;SDS011;23776;51.592;7.180;2023-02-15T00:29:05;67.00;;;26.08;;
37955;SDS011;23776;51.592;7.180;2023-02-15T00:31:31;66.75;;;26.42;;
37955;SDS011;23776;51.592;7.180;2023-02-15T00:34:10;68.32;;;26.83;;
37955;SDS011;23776;51.592;7.180;2023-02-15T00:36:38;58.53;;;25.13;;
37955;SDS011;23776;51.592;7.180;2023-02-15T00:39:04;62.30;;;26.05;;
37955;SDS011;23776;51.592;7.180;2023-02-15T00:41:33;65.63;;;27.80;;
37955;SDS011;23776;51.592;7.180;2023-02-15T00:43:59;67.60;;;26.30;;
37955;SDS011;23776;51.592;7.180;2023-02-15T00:46:25;65.25;;;26.90;;
37955;SDS011;23776;51.592;7.180;2023-02-15T00:48:51;58.25;;;25.50;;
37955;SDS011;23776;51.592;7.180;2023-02-15T00:51:16;70.93;;;26.40;;
37955;SDS011;23776;51.592;7.180;2023-02-15T00:57:05;62.15;;;24.73;;
37955;SDS011;23776;51.592;7.180;2023-02-15T00:59:31;69.80;;;26.52;;
37955;SDS011;23776;51.592;7.180;2023-02-15T01:01:56;68.97;;;25.27;;
37955;SDS011;23776;51.592;7.180;2023-02-15T01:04:22;62.42;;;24.05;;
37955;SDS011;23776;51.592;7.180;2023-02-15T01:06:48;57.53;;;23.90;;
37955;SDS011;23776;51.592;7.180;2023-02-15T01:09:13;56.90;;;25.10;;
37955;SDS011;23776;51.592;7.180;2023-02-15T01:11:39;58.95;;;23.63;;
37955;SDS011;23776;51.592;7.180;2023-02-15T01:14:04;57.90;;;23.75;;
37955;SDS011;23776;51.592;7.180;2023-02-15T01:16:30;60.67;;;25.13;;
37955;SDS011;23776;51.592;7.180;2023-02-15T01:18:56;66.22;;;24.98;;
37955;SDS011;23776;51.592;7.180;2023-02-15T01:21:23;60.88;;;25.10;;
37955;SDS011;23776;51.592;7.180;2023-02-15T01:23:49;56.47;;;22.92;;
37955;SDS011;23776;51.592;7.180;2023-02-15T01:26:15;57.35;;;23.88;;
37955;SDS011;23776;51.592;7.180;2023-02-15T01:28:41;63.05;;;25.27;;
37955;SDS011;23776;51.592;7.180;2023-02-15T01:31:11;64.65;;;23.63;;
37955;SDS011;23776;51.592;7.180;2023-02-15T01:33:39;56.78;;;25.60;;
37955;SDS011;23776;51.592;7.180;2023-02-15T01:36:05;56.65;;;23.80;;
37955;SDS011;23776;51.592;7.180;2023-02-15T01:38:31;60.08;;;25.42;;
37955;SDS011;23776;51.592;7.180;2023-02-15T01:40:57;61.40;;;24.55;;
37955;SDS011;23776;51.592;7.180;2023-02-15T01:43:44;58.33;;;25.02;;
37955;SDS011;23776;51.592;7.180;2023-02-15T01:46:11;61.85;;;23.88;;
37955;SDS011;23776;51.592;7.180;2023-02-15T01:48:50;60.45;;;24.42;;
37955;SDS011;23776;51.592;7.180;2023-02-15T01:51:19;53.67;;;23.52;;
37955;SDS011;23776;51.592;7.180;2023-02-15T01:54:01;63.70;;;25.73;;
37955;SDS011;23776;51.592;7.180;2023-02-15T01:56:35;55.17;;;23.30;;
37955;SDS011;23776;51.592;7.180;2023-02-15T01:59:05;61.75;;;23.65;;
37955;SDS011;23776;51.592;7.180;2023-02-15T02:01:34;61.70;;;23.52;;
37955;SDS011;23776;51.592;7.180;2023-02-15T02:04:02;67.75;;;25.58;;
37955;SDS011;23776;51.592;7.180;2023-02-15T02:06:30;59.45;;;23.08;;
37955;SDS011;23776;51.592;7.180;2023-02-15T02:08:58;58.70;;;25.15;;
37955;SDS011;23776;51.592;7.180;2023-02-15T02:11:24;59.25;;;24.08;;
37955;SDS011;23776;51.592;7.180;2023-02-15T02:13:50;57.25;;;23.38;;
37955;SDS011;23776;51.592;7.180;2023-02-15T02:16:23;55.13;;;24.13;;
37955;SDS011;23776;51.592;7.180;2023-02-15T02:28:14;54.97;;;22.75;;
37955;SDS011;23776;51.592;7.180;2023-02-15T02:30:49;58.42;;;24.98;;
37955;SDS011;23776;51.592;7.180;2023-02-15T02:33:43;58.75;;;23.00;;
37955;SDS011;23776;51.592;7.180;2023-02-15T02:36:21;61.22;;;24.42;;
37955;SDS011;23776;51.592;7.180;2023-02-15T02:39:07;57.92;;;22.55;;
37955;SDS011;23776;51.592;7.180;2023-02-15T02:42:22;56.80;;;23.75;;
37955;SDS011;23776;51.592;7.180;2023-02-15T02:44:41;57.77;;;23.20;;
37955;SDS011;23776;51.592;7.180;2023-02-15T02:47:19;56.30;;;22.23;;
37955;SDS011;23776;51.592;7.180;2023-02-15T02:50:28;58.92;;;22.70;;
37955;SDS011;23776;51.592;7.180;2023-02-15T02:52:48;57.95;;;21.80;;
37955;SDS011;23776;51.592;7.180;2023-02-15T02:55:16;55.97;;;23.73;;
37955;SDS011;23776;51.592;7.180;2023-02-15T02:57:46;53.05;;;21.85;;
37955;SDS011;23776;51.592;7.180;2023-02-15T03:00:23;59.88;;;23.13;;
37955;SDS011;23776;51.592;7.180;2023-02-15T03:02:52;50.85;;;22.17;;
37955;SDS011;23776;51.592;7.180;2023-02-15T03:05:23;54.22;;;22.02;;
37955;SDS011;23776;51.592;7.180;2023-02-15T03:07:52;56.50;;;24.20;;
37955;SDS011;23776;51.592;7.180;2023-02-15T03:10:18;55.67;;;22.85;;
37955;SDS011;23776;51.592;7.180;2023-02-15T03:12:47;52.42;;;22.75;;
37955;SDS011;23776;51.592;7.180;2023-02-15T03:15:20;56.20;;;21.52;;
37955;SDS011;23776;51.592;7.180;2023-02-15T03:18:17;59.70;;;23.85;;
37955;SDS011;23776;51.592;7.180;2023-02-15T03:20:47;51.22;;;23.45;;
37955;SDS011;23776;51.592;7.180;2023-02-15T03:23:16;56.47;;;22.70;;
37955;SDS011;23776;51.592;7.180;2023-02-15T03:25:48;56.75;;;22.33;;
37955;SDS011;23776;51.592;7.180;2023-02-15T03:28:21;55.78;;;23.00;;
37955;SDS011;23776;51.592;7.180;2023-02-15T03:31:07;61.97;;;24.73;;
37955;SDS011;23776;51.592;7.180;2023-02-15T03:33:35;48.58;;;21.13;;
37955;SDS011;23776;51.592;7.180;2023-02-15T03:36:11;55.08;;;23.10;;
37955;SDS011;23776;51.592;7.180;2023-02-15T03:38:57;56.08;;;21.35;;
37955;SDS011;23776;51.592;7.180;2023-02-15T03:41:39;54.35;;;22.30;;
37955;SDS011;23776;51.592;7.180;2023-02-15T03:44:25;61.08;;;22.88;;
37955;SDS011;23776;51.592;7.180;2023-02-15T03:49:27;55.35;;;22.83;;
37955;SDS011;23776;51.592;7.180;2023-02-15T03:51:56;57.40;;;23.25;;
37955;SDS011;23776;51.592;7.180;2023-02-15T03:57:16;56.60;;;23.42;;
37955;SDS011;23776;51.592;7.180;2023-02-15T04:02:58;57.00;;;22.63;;
37955;SDS011;23776;51.592;7.180;2023-02-15T04:05:27;52.95;;;21.90;;
37955;SDS011;23776;51.592;7.180;2023-02-15T04:07:52;55.70;;;22.40;;
37955;SDS011;23776;51.592;7.180;2023-02-15T04:10:18;58.20;;;24.02;;
37955;SDS011;23776;51.592;7.180;2023-02-15T04:13:02;55.55;;;22.35;;
37955;SDS011;23776;51.592;7.180;2023-02-15T04:15:27;54.17;;;21.85;;
37955;SDS011;23776;51.592;7.180;2023-02-15T04:18:12;54.78;;;21.42;;
37955;SDS011;23776;51.592;7.180;2023-02-15T04:20:38;53.88;;;22.98;;
37955;SDS011;23776;51.592;7.180;2023-02-15T04:23:22;56.63;;;21.83;;
37955;SDS011;23776;51.592;7.180;2023-02-15T04:26:06;53.42;;;22.80;;
37955;SDS011;23776;51.592;7.180;2023-02-15T04:28:32;52.53;;;21.73;;
37955;SDS011;23776;51.592;7.180;2023-02-15T04:30:57;58.67;;;22.38;;
37955;SDS011;23776;51.592;7.180;2023-02-15T04:33:23;56.55;;;22.83;;
37955;SDS011;23776;51.592;7.180;2023-02-15T04:35:48;54.08;;;23.77;;
37955;SDS011;23776;51.592;7.180;2023-02-15T04:38:14;55.40;;;22.05;;
37955;SDS011;23776;51.592;7.180;2023-02-15T04:40:40;58.30;;;22.00;;
37955;SDS011;23776;51.592;7.180;2023-02-15T04:43:05;59.25;;;23.30;;
37955;SDS011;23776;51.592;7.180;2023-02-15T04:45:31;46.20;;;21.38;;
37955;SDS011;23776;51.592;7.180;2023-02-15T04:47:56;52.22;;;22.75;;
37955;SDS011;23776;51.592;7.180;2023-02-15T04:50:22;61.05;;;23.50;;
37955;SDS011;23776;51.592;7.180;2023-02-15T04:52:47;56.40;;;24.05;;
37955;SDS011;23776;51.592;7.180;2023-02-15T04:55:13;59.45;;;23.00;;
37955;SDS011;23776;51.592;7.180;2023-02-15T04:57:39;59.30;;;23.15;;
37955;SDS011;23776;51.592;7.180;2023-02-15T05:00:05;63.50;;;24.15;;
37955;SDS011;23776;51.592;7.180;2023-02-15T05:02:31;49.22;;;21.55;;
37955;SDS011;23776;51.592;7.180;2023-02-15T05:04:56;64.93;;;25.17;;
37955;SDS011;23776;51.592;7.180;2023-02-15T05:07:22;58.13;;;23.48;;
37955;SDS011;23776;51.592;7.180;2023-02-15T05:09:48;58.45;;;23.33;;
37955;SDS011;23776;51.592;7.180;2023-02-15T05:12:13;65.40;;;23.70;;
37955;SDS011;23776;51.592;7.180;2023-02-15T05:14:39;59.05;;;24.10;;
37955;SDS011;23776;51.592;7.180;2023-02-15T05:17:04;57.97;;;23.73;;
37955;SDS011;23776;51.592;7.180;2023-02-15T05:19:30;54.63;;;22.73;;
37955;SDS011;23776;51.592;7.180;2023-02-15T05:21:56;65.90;;;26.02;;
37955;SDS011;23776;51.592;7.180;2023-02-15T05:24:21;65.85;;;25.38;;
37955;SDS011;23776;51.592;7.180;2023-02-15T05:27:06;53.40;;;23.15;;
37955;SDS011;23776;51.592;7.180;2023-02-15T05:29:53;58.35;;;23.17;;
37955;SDS011;23776;51.592;7.180;2023-02-15T05:32:19;58.38;;;22.75;;
37955;SDS011;23776;51.592;7.180;2023-02-15T05:34:44;57.35;;;24.67;;
37955;SDS011;23776;51.592;7.180;2023-02-15T05:37:10;63.78;;;24.42;;
37955;SDS011;23776;51.592;7.180;2023-02-15T05:39:36;63.42;;;24.55;;
37955;SDS011;23776;51.592;7.180;2023-02-15T05:42:01;61.88;;;26.30;;
37955;SDS011;23776;51.592;7.180;2023-02-15T05:44:27;54.95;;;23.38;;
37955;SDS011;23776;51.592;7.180;2023-02-15T05:46:53;66.13;;;25.23;;
37955;SDS011;23776;51.592;7.180;2023-02-15T05:49:19;62.20;;;23.50;;
37955;SDS011;23776;51.592;7.180;2023-02-15T05:51:44;64.97;;;25.52;;
37955;SDS011;23776;51.592;7.180;2023-02-15T05:54:10;63.90;;;24.88;;
37955;SDS011;23776;51.592;7.180;2023-02-15T05:56:35;62.75;;;25.30;;
37955;SDS011;23776;51.592;7.180;2023-02-15T05:59:01;64.57;;;25.00;;
37955;SDS011;23776;51.592;7.180;2023-02-15T06:01:27;64.78;;;25.45;;
37955;SDS011;23776;51.592;7.180;2023-02-15T06:03:53;66.68;;;24.90;;
37955;SDS011;23776;51.592;7.180;2023-02-15T06:06:19;65.28;;;25.20;;
37955;SDS011;23776;51.592;7.180;2023-02-15T06:08:45;68.60;;;25.45;;
37955;SDS011;23776;51.592;7.180;2023-02-15T06:11:10;66.40;;;26.02;;
37955;SDS011;23776;51.592;7.180;2023-02-15T06:13:36;62.28;;;23.75;;
37955;SDS011;23776;51.592;7.180;2023-02-15T06:16:02;73.32;;;26.33;;
37955;SDS011;23776;51.592;7.180;2023-02-15T06:18:28;54.92;;;22.88;;
37955;SDS011;23776;51.592;7.180;2023-02-15T06:20:53;64.47;;;25.05;;
37955;SDS011;23776;51.592;7.180;2023-02-15T06:23:19;65.38;;;24.73;;
37955;SDS011;23776;51.592;7.180;2023-02-15T06:25:45;56.30;;;23.17;;
37955;SDS011;23776;51.592;7.180;2023-02-15T06:28:11;64.80;;;25.48;;
37955;SDS011;23776;51.592;7.180;2023-02-15T06:30:37;69.13;;;26.33;;
37955;SDS011;23776;51.592;7.180;2023-02-15T06:33:03;68.63;;;26.45;;
37955;SDS011;23776;51.592;7.180;2023-02-15T06:35:29;66.05;;;27.15;;
37955;SDS011;23776;51.592;7.180;2023-02-15T06:37:55;68.85;;;25.70;;
37955;SDS011;23776;51.592;7.180;2023-02-15T06:40:20;72.03;;;26.70;;
37955;SDS011;23776;51.592;7.180;2023-02-15T06:42:46;73.47;;;27.27;;
37955;SDS011;23776;51.592;7.180;2023-02-15T06:45:12;67.53;;;25.42;;
37955;SDS011;23776;51.592;7.180;2023-02-15T06:47:38;72.22;;;26.77;;
37955;SDS011;23776;51.592;7.180;2023-02-15T06:50:04;63.30;;;25.75;;
37955;SDS011;23776;51.592;7.180;2023-02-15T06:52:31;64.38;;;25.85;;
37955;SDS011;23776;51.592;7.180;2023-02-15T06:54:56;73.60;;;27.30;;
37955;SDS011;23776;51.592;7.180;2023-02-15T06:57:22;72.07;;;27.10;;
37955;SDS011;23776;51.592;7.180;2023-02-15T06:59:47;70.47;;;27.65;;
37955;SDS011;23776;51.592;7.180;2023-02-15T07:02:13;69.85;;;26.02;;
37955;SDS011;23776;51.592;7.180;2023-02-15T07:04:39;66.88;;;25.30;;
37955;SDS011;23776;51.592;7.180;2023-02-15T07:07:08;72.43;;;27.83;;
37955;SDS011;23776;51.592;7.180;2023-02-15T07:09:35;71.18;;;27.60;;
37955;SDS011;23776;51.592;7.180;2023-02-15T07:12:01;83.50;;;33.75;;
37955;SDS011;23776;51.592;7.180;2023-02-15T07:14:46;62.35;;;27.10;;
37955;SDS011;23776;51.592;7.180;2023-02-15T07:17:11;67.82;;;26.48;;
37955;SDS011;23776;51.592;7.180;2023-02-15T07:19:37;64.75;;;26.92;;
37955;SDS011;23776;51.592;7.180;2023-02-15T07:22:02;69.47;;;26.98;;
37955;SDS011;23776;51.592;7.180;2023-02-15T07:24:29;73.72;;;26.20;;
37955;SDS011;23776;51.592;7.180;2023-02-15T07:26:55;66.00;;;26.67;;
37955;SDS011;23776;51.592;7.180;2023-02-15T07:29:22;74.40;;;27.45;;
37955;SDS011;23776;51.592;7.180;2023-02-15T07:31:48;65.07;;;27.00;;
37955;SDS011;23776;51.592;7.180;2023-02-15T07:34:14;78.63;;;27.75;;
37955;SDS011;23776;51.592;7.180;2023-02-15T07:36:39;78.68;;;27.55;;
37955;SDS011;23776;51.592;7.180;2023-02-15T07:39:05;71.50;;;25.42;;
37955;SDS011;23776;51.592;7.180;2023-02-15T07:41:30;68.78;;;29.23;;
37955;SDS011;23776;51.592;7.180;2023-02-15T07:43:56;76.07;;;29.88;;
37955;SDS011;23776;51.592;7.180;2023-02-15T07:46:21;75.25;;;27.52;;
37955;SDS011;23776;51.592;7.180;2023-02-15T07:48:47;77.60;;;29.23;;
37955;SDS011;23776;51.592;7.180;2023-02-15T07:51:13;67.22;;;25.88;;
37955;SDS011;23776;51.592;7.180;2023-02-15T07:53:39;77.53;;;29.35;;
37955;SDS011;23776;51.592;7.180;2023-02-15T07:56:11;77.53;;;28.90;;
37955;SDS011;23776;51.592;7.180;2023-02-15T07:58:39;73.53;;;29.08;;
37955;SDS011;23776;51.592;7.180;2023-02-15T08:03:48;69.68;;;28.10;;
37955;SDS011;23776;51.592;7.180;2023-02-15T08:06:14;78.70;;;31.73;;
37955;SDS011;23776;51.592;7.180;2023-02-15T08:08:40;67.97;;;28.65;;
37955;SDS011;23776;51.592;7.180;2023-02-15T08:11:12;79.03;;;30.63;;
37955;SDS011;23776;51.592;7.180;2023-02-15T08:13:55;75.20;;;30.52;;
37955;SDS011;23776;51.592;7.180;2023-02-15T08:19:13;73.68;;;29.17;;
37955;SDS011;23776;51.592;7.180;2023-02-15T08:21:44;86.97;;;30.33;;
37955;SDS011;23776;51.592;7.180;2023-02-15T08:24:15;74.97;;;30.38;;
37955;SDS011;23776;51.592;7.180;2023-02-15T08:26:41;68.90;;;29.88;;
37955;SDS011;23776;51.592;7.180;2023-02-15T08:29:09;78.55;;;30.33;;
37955;SDS011;23776;51.592;7.180;2023-02-15T08:31:35;80.28;;;31.13;;
37955;SDS011;23776;51.592;7.180;2023-02-15T08:34:02;78.35;;;30.30;;
37955;SDS011;23776;51.592;7.180;2023-02-15T08:36:29;75.13;;;30.80;;
37955;SDS011;23776;51.592;7.180;2023-02-15T08:38:59;71.72;;;29.95;;
37955;SDS011;23776;51.592;7.180;2023-02-15T08:41:28;78.13;;;33.22;;
37955;SDS011;23776;51.592;7.180;2023-02-15T08:43:56;81.80;;;31.80;;
37955;SDS011;23776;51.592;7.180;2023-02-15T08:46:24;76.70;;;30.88;;
37955;SDS011;23776;51.592;7.180;2023-02-15T08:48:51;75.80;;;31.10;;
37955;SDS011;23776;51.592;7.180;2023-02-15T08:51:23;75.78;;;31.13;;
37955;SDS011;23776;51.592;7.180;2023-02-15T08:56:18;87.38;;;32.63;;
37955;SDS011;23776;51.592;7.180;2023-02-15T08:58:45;79.15;;;31.88;;
37955;SDS011;23776;51.592;7.180;2023-02-15T09:01:19;79.80;;;30.63;;
37955;SDS011;23776;51.592;7.180;2023-02-15T09:03:47;76.88;;;29.98;;
37955;SDS011;23776;51.592;7.180;2023-02-15T09:06:16;73.32;;;28.98;;
37955;SDS011;23776;51.592;7.180;2023-02-15T09:08:43;59.15;;;26.23;;
37955;SDS011;23776;51.592;7.180;2023-02-15T09:11:10;65.88;;;27.67;;
37955;SDS011;23776;51.592;7.180;2023-02-15T09:14:15;75.43;;;29.75;;
37955;SDS011;23776;51.592;7.180;2023-02-15T11:09:24;48.08;;;20.73;;
37955;SDS011;23776;51.592;7.180;2023-02-15T11:11:54;48.15;;;19.75;;
37955;SDS011;23776;51.592;7.180;2023-02-15T11:14:31;46.05;;;19.15;;
37955;SDS011;23776;51.592;7.180;2023-02-15T11:17:14;53.28;;;19.98;;
37955;SDS011;23776;51.592;7.180;2023-02-15T11:20:04;39.40;;;17.15;;
37955;SDS011;23776;51.592;7.180;2023-02-15T11:22:33;45.17;;;18.55;;
37955;SDS011;23776;51.592;7.180;2023-02-15T11:24:59;41.90;;;18.60;;
37955;SDS011;23776;51.592;7.180;2023-02-15T11:27:33;43.65;;;18.75;;
37955;SDS011;23776;51.592;7.180;2023-02-15T11:30:00;41.10;;;17.83;;
37955;SDS011;23776;51.592;7.180;2023-02-15T11:32:49;41.22;;;19.63;;
37955;SDS011;23776;51.592;7.180;2023-02-15T11:35:20;42.63;;;18.17;;
37955;SDS011;23776;51.592;7.180;2023-02-15T11:37:57;44.58;;;19.30;;
37955;SDS011;23776;51.592;7.180;2023-02-15T11:43:35;40.90;;;18.88;;
37955;SDS011;23776;51.592;7.180;2023-02-15T11:46:18;39.22;;;18.38;;
37955;SDS011;23776;51.592;7.180;2023-02-15T11:48:46;38.40;;;17.42;;
37955;SDS011;23776;51.592;7.180;2023-02-15T11:51:13;32.95;;;16.30;;
37955;SDS011;23776;51.592;7.180;2023-02-15T11:53:41;37.08;;;17.30;;
37955;SDS011;23776;51.592;7.180;2023-02-15T11:56:18;38.35;;;17.00;;
37955;SDS011;23776;51.592;7.180;2023-02-15T12:01:28;38.25;;;18.45;;
37955;SDS011;23776;51.592;7.180;2023-02-15T12:04:25;37.22;;;15.88;;
37955;SDS011;23776;51.592;7.180;2023-02-15T12:09:53;36.38;;;16.20;;
37955;SDS011;23776;51.592;7.180;2023-02-15T12:14:55;32.85;;;15.73;;
37955;SDS011;23776;51.592;7.180;2023-02-15T12:17:27;35.28;;;15.13;;
37955;SDS011;23776;51.592;7.180;2023-02-15T12:22:38;35.10;;;17.15;;
37955;SDS011;23776;51.592;7.180;2023-02-15T12:25:24;34.90;;;16.02;;
37955;SDS011;23776;51.592;7.180;2023-02-15T12:27:54;37.95;;;16.08;;
37955;SDS011;23776;51.592;7.180;2023-02-15T12:30:34;35.38;;;15.90;;
37955;SDS011;23776;51.592;7.180;2023-02-15T12:35:54;29.23;;;11.95;;
37955;SDS011;23776;51.592;7.180;2023-02-15T12:38:24;26.42;;;11.65;;
37955;SDS011;23776;51.592;7.180;2023-02-15T12:43:35;26.60;;;11.40;;
37955;SDS011;23776;51.592;7.180;2023-02-15T12:46:13;25.27;;;12.05;;
37955;SDS011;23776;51.592;7.180;2023-02-15T12:48:39;30.02;;;11.90;;
37955;SDS011;23776;51.592;7.180;2023-02-15T12:51:08;23.35;;;10.80;;
37955;SDS011;23776;51.592;7.180;2023-02-15T12:56:05;25.20;;;11.60;;
37955;SDS011;23776;51.592;7.180;2023-02-15T12:58:39;26.02;;;11.48;;
37955;SDS011;23776;51.592;7.180;2023-02-15T13:03:38;26.92;;;11.65;;
37955;SDS011;23776;51.592;7.180;2023-02-15T13:06:19;26.15;;;10.73;;
37955;SDS011;23776;51.592;7.180;2023-02-15T13:08:47;28.15;;;11.40;;
37955;SDS011;23776;51.592;7.180;2023-02-15T13:11:19;25.20;;;10.80;;
37955;SDS011;23776;51.592;7.180;2023-02-15T13:13:54;24.77;;;10.38;;
37955;SDS011;23776;51.592;7.180;2023-02-15T13:16:35;27.38;;;11.30;;
37955;SDS011;23776;51.592;7.180;2023-02-15T13:19:09;27.73;;;11.07;;
37955;SDS011;23776;51.592;7.180;2023-02-15T13:22:06;25.52;;;10.43;;
37955;SDS011;23776;51.592;7.180;2023-02-15T13:24:40;26.85;;;10.95;;
37955;SDS011;23776;51.592;7.180;2023-02-15T13:27:16;26.80;;;11.10;;
37955;SDS011;23776;51.592;7.180;2023-02-15T13:35:17;30.35;;;11.68;;
37955;SDS011;23776;51.592;7.180;2023-02-15T13:40:25;27.83;;;11.45;;
37955;SDS011;23776;51.592;7.180;2023-02-15T13:48:42;30.92;;;11.07;;
37955;SDS011;23776;51.592;7.180;2023-02-15T13:59:33;30.98;;;12.48;;
37955;SDS011;23776;51.592;7.180;2023-02-15T14:16:20;37.72;;;13.57;;
37955;SDS011;23776;51.592;7.180;2023-02-15T14:22:00;31.63;;;12.23;;
37955;SDS011;23776;51.592;7.180;2023-02-15T14:34:58;30.58;;;11.45;;
37955;SDS011;23776;51.592;7.180;2023-02-15T14:40:23;31.30;;;12.23;;
37955;SDS011;23776;51.592;7.180;2023-02-15T14:43:11;30.20;;;12.82;;
37955;SDS011;23776;51.592;7.180;2023-02-15T14:49:35;31.95;;;12.18;;
37955;SDS011;23776;51.592;7.180;2023-02-15T14:57:20;26.73;;;11.25;;
37955;SDS011;23776;51.592;7.180;2023-02-15T15:04:44;26.00;;;11.00;;
37955;SDS011;23776;51.592;7.180;2023-02-15T15:07:36;26.90;;;11.60;;
37955;SDS011;23776;51.592;7.180;2023-02-15T15:12:57;31.63;;;11.43;;
37955;SDS011;23776;51.592;7.180;2023-02-15T15:15:46;23.13;;;10.25;;
37955;SDS011;23776;51.592;7.180;2023-02-15T15:27:36;26.98;;;11.10;;
37955;SDS011;23776;51.592;7.180;2023-02-15T15:32:45;24.23;;;10.63;;
37955;SDS011;23776;51.592;7.180;2023-02-15T15:48:55;25.52;;;9.68;;
37955;SDS011;23776;51.592;7.180;2023-02-15T15:51:29;29.20;;;11.60;;
37955;SDS011;23776;51.592;7.180;2023-02-15T15:53:56;30.80;;;10.52;;
37955;SDS011;23776;51.592;7.180;2023-02-15T15:56:24;26.60;;;10.00;;
37955;SDS011;23776;51.592;7.180;2023-02-15T15:58:56;31.20;;;11.32;;
37955;SDS011;23776;51.592;7.180;2023-02-15T16:01:35;28.35;;;11.10;;
37955;SDS011;23776;51.592;7.180;2023-02-15T16:04:13;29.73;;;11.07;;
37955;SDS011;23776;51.592;7.180;2023-02-15T16:06:47;25.48;;;10.20;;
37955;SDS011;23776;51.592;7.180;2023-02-15T16:09:17;24.50;;;10.38;;
37955;SDS011;23776;51.592;7.180;2023-02-15T16:11:45;29.23;;;10.02;;
37955;SDS011;23776;51.592;7.180;2023-02-15T16:14:19;26.85;;;10.57;;
37955;SDS011;23776;51.592;7.180;2023-02-15T16:16:55;26.23;;;10.98;;
37955;SDS011;23776;51.592;7.180;2023-02-15T16:19:24;32.65;;;11.13;;
37955;SDS011;23776;51.592;7.180;2023-02-15T16:21:54;26.63;;;10.68;;
37955;SDS011;23776;51.592;7.180;2023-02-15T16:29:48;43.30;;;13.98;;
37955;SDS011;23776;51.592;7.180;2023-02-15T16:32:15;24.23;;;10.48;;
37955;SDS011;23776;51.592;7.180;2023-02-15T16:35:02;28.05;;;11.32;;
37955;SDS011;23776;51.592;7.180;2023-02-15T16:37:32;23.83;;;10.60;;
37955;SDS011;23776;51.592;7.180;2023-02-15T16:39:59;30.17;;;10.85;;
37955;SDS011;23776;51.592;7.180;2023-02-15T16:42:25;27.25;;;10.73;;
37955;SDS011;23776;51.592;7.180;2023-02-15T16:44:53;31.85;;;10.88;;
37955;SDS011;23776;51.592;7.180;2023-02-15T16:47:30;29.52;;;10.43;;
37955;SDS011;23776;51.592;7.180;2023-02-15T16:49:59;31.85;;;10.13;;
37955;SDS011;23776;51.592;7.180;2023-02-15T16:52:27;30.70;;;11.15;;
37955;SDS011;23776;51.592;7.180;2023-02-15T16:55:00;29.13;;;11.07;;
37955;SDS011;23776;51.592;7.180;2023-02-15T16:57:32;32.42;;;11.77;;
37955;SDS011;23776;51.592;7.180;2023-02-15T17:00:07;27.63;;;10.32;;
37955;SDS011;23776;51.592;7.180;2023-02-15T17:02:57;28.52;;;10.85;;
37955;SDS011;23776;51.592;7.180;2023-02-15T17:05:28;24.50;;;10.18;;
37955;SDS011;23776;51.592;7.180;2023-02-15T17:10:41;26.17;;;10.32;;
37955;SDS011;23776;51.592;7.180;2023-02-15T17:13:12;33.90;;;11.57;;
37955;SDS011;23776;51.592;7.180;2023-02-15T17:18:23;27.60;;;10.88;;
37955;SDS011;23776;51.592;7.180;2023-02-15T17:20:52;25.67;;;11.02;;
37955;SDS011;23776;51.592;7.180;2023-02-15T17:26:11;29.83;;;11.55;;
37955;SDS011;23776;51.592;7.180;2023-02-15T17:28:48;27.42;;;11.07;;
37955;SDS011;23776;51.592;7.180;2023-02-15T17:31:17;32.35;;;11.10;;
37955;SDS011;23776;51.592;7.180;2023-02-15T17:33:45;38.55;;;11.80;;
37955;SDS011;23776;51.592;7.180;2023-02-15T17:36:18;30.30;;;11.50;;
37955;SDS011;23776;51.592;7.180;2023-02-15T17:42:09;37.85;;;12.32;;
37955;SDS011;23776;51.592;7.180;2023-02-15T17:44:34;34.08;;;13.27;;
37955;SDS011;23776;51.592;7.180;2023-02-15T17:47:00;33.28;;;12.25;;
37955;SDS011;23776;51.592;7.180;2023-02-15T17:49:25;33.58;;;12.18;;
37955;SDS011;23776;51.592;7.180;2023-02-15T17:51:58;30.92;;;12.25;;
37955;SDS011;23776;51.592;7.180;2023-02-15T17:54:28;28.13;;;11.52;;
37955;SDS011;23776;51.592;7.180;2023-02-15T17:57:13;30.35;;;11.68;;
37955;SDS011;23776;51.592;7.180;2023-02-15T17:59:40;31.95;;;12.00;;
37955;SDS011;23776;51.592;7.180;2023-02-15T18:02:25;29.35;;;11.75;;
37955;SDS011;23776;51.592;7.180;2023-02-15T18:05:14;34.65;;;12.57;;
37955;SDS011;23776;51.592;7.180;2023-02-15T18:07:59;33.00;;;12.70;;
37955;SDS011;23776;51.592;7.180;2023-02-15T18:10:44;35.60;;;13.85;;
37955;SDS011;23776;51.592;7.180;2023-02-15T18:13:28;31.27;;;13.25;;
37955;SDS011;23776;51.592;7.180;2023-02-15T18:15:54;28.25;;;12.52;;
37955;SDS011;23776;51.592;7.180;2023-02-15T18:18:20;31.58;;;13.20;;
37955;SDS011;23776;51.592;7.180;2023-02-15T18:20:48;33.63;;;12.88;;
37955;SDS011;23776;51.592;7.180;2023-02-15T18:23:13;34.53;;;13.38;;
37955;SDS011;23776;51.592;7.180;2023-02-15T18:25:39;31.70;;;12.20;;
37955;SDS011;23776;51.592;7.180;2023-02-15T18:28:07;30.30;;;13.20;;
37955;SDS011;23776;51.592;7.180;2023-02-15T18:30:34;31.48;;;13.27;;
37955;SDS011;23776;51.592;7.180;2023-02-15T18:33:00;30.95;;;12.93;;
37955;SDS011;23776;51.592;7.180;2023-02-15T18:35:31;32.28;;;13.48;;
37955;SDS011;23776;51.592;7.180;2023-02-15T18:37:57;31.67;;;13.40;;
37955;SDS011;23776;51.592;7.180;2023-02-15T18:40:25;29.45;;;13.13;;
37955;SDS011;23776;51.592;7.180;2023-02-15T18:42:52;31.58;;;14.45;;
37955;SDS011;23776;51.592;7.180;2023-02-15T18:45:24;35.55;;;13.68;;
37955;SDS011;23776;51.592;7.180;2023-02-15T18:47:52;30.27;;;13.85;;
37955;SDS011;23776;51.592;7.180;2023-02-15T18:50:19;34.72;;;13.63;;
37955;SDS011;23776;51.592;7.180;2023-02-15T18:52:46;35.22;;;14.35;;
37955;SDS011;23776;51.592;7.180;2023-02-15T18:55:16;33.40;;;13.57;;
37955;SDS011;23776;51.592;7.180;2023-02-15T18:57:44;28.45;;;13.63;;
37955;SDS011;23776;51.592;7.180;2023-02-15T19:00:14;32.00;;;13.50;;
37955;SDS011;23776;51.592;7.180;2023-02-15T19:02:45;32.25;;;12.85;;
37955;SDS011;23776;51.592;7.180;2023-02-15T19:05:11;35.30;;;13.93;;
37955;SDS011;23776;51.592;7.180;2023-02-15T19:07:37;31.95;;;13.32;;
37955;SDS011;23776;51.592;7.180;2023-02-15T19:10:03;34.75;;;14.60;;
37955;SDS011;23776;51.592;7.180;2023-02-15T19:12:31;33.85;;;13.85;;
37955;SDS011;23776;51.592;7.180;2023-02-15T19:14:57;37.28;;;14.70;;
37955;SDS011;23776;51.592;7.180;2023-02-15T19:17:23;40.22;;;15.70;;
37955;SDS011;23776;51.592;7.180;2023-02-15T19:19:49;30.98;;;15.27;;
37955;SDS011;23776;51.592;7.180;2023-02-15T19:22:26;45.80;;;16.45;;